sensor_id;sensor_type;location;lat;lon;timestamp;P1;durP1;ratioP1;P2;durP2;ratioP2
2029;SDS011;1020;48.854;8.830;2022-12-18T00:01:57;38.87;;;27.87;;
2029;SDS011;1020;48.854;8.830;2022-12-18T00:04:25;38.77;;;25.73;;
2029;SDS011;1020;48.854;8.830;2022-12-18T00:06:54;37.67;;;25.67;;
2029;SDS011;1020;48.854;8.830;2022-12-18T00:09:21;43.63;;;27.40;;
2029;SDS011;1020;48.854;8.830;2022-12-18T00:11:47;38.20;;;26.40;;
2029;SDS011;1020;48.854;8.830;2022-12-18T00:14:14;42.63;;;30.00;;
2029;SDS011;1020;48.854;8.830;2022-12-18T00:16:42;32.73;;;21.67;;
2029;SDS011;1020;48.854;8.830;2022-12-18T00:19:10;39.73;;;27.10;;
2029;SDS011;1020;48.854;8.830;2022-12-18T00:21:38;45.83;;;27.20;;
2029;SDS011;1020;48.854;8.830;2022-12-18T00:24:06;35.37;;;25.20;;
2029;SDS011;1020;48.854;8.830;2022-12-18T00:26:34;39.43;;;25.07;;
2029;SDS011;1020;48.854;8.830;2022-12-18T00:29:02;38.13;;;26.30;;
2029;SDS011;1020;48.854;8.830;2022-12-18T00:31:31;37.67;;;24.57;;
2029;SDS011;1020;48.854;8.830;2022-12-18T00:33:58;35.33;;;24.90;;
2029;SDS011;1020;48.854;8.830;2022-12-18T00:36:26;36.93;;;25.07;;
2029;SDS011;1020;48.854;8.830;2022-12-18T00:38:54;44.20;;;26.10;;
2029;SDS011;1020;48.854;8.830;2022-12-18T00:41:23;38.03;;;25.73;;
2029;SDS011;1020;48.854;8.830;2022-12-18T00:44:09;42.73;;;26.30;;
2029;SDS011;1020;48.854;8.830;2022-12-18T00:46:37;43.97;;;26.83;;
2029;SDS011;1020;48.854;8.830;2022-12-18T00:49:04;37.70;;;26.00;;
2029;SDS011;1020;48.854;8.830;2022-12-18T00:51:31;38.10;;;24.50;;
2029;SDS011;1020;48.854;8.830;2022-12-18T00:53:58;39.40;;;26.83;;
2029;SDS011;1020;48.854;8.830;2022-12-18T00:56:26;38.60;;;25.57;;
2029;SDS011;1020;48.854;8.830;2022-12-18T00:58:53;38.13;;;26.17;;
2029;SDS011;1020;48.854;8.830;2022-12-18T01:01:19;37.80;;;24.80;;
2029;SDS011;1020;48.854;8.830;2022-12-18T01:03:46;39.00;;;25.33;;
2029;SDS011;1020;48.854;8.830;2022-12-18T01:06:13;38.40;;;25.60;;
2029;SDS011;1020;48.854;8.830;2022-12-18T01:08:41;43.27;;;26.77;;
2029;SDS011;1020;48.854;8.830;2022-12-18T01:11:08;38.47;;;25.50;;
2029;SDS011;1020;48.854;8.830;2022-12-18T01:13:38;38.33;;;27.43;;
2029;SDS011;1020;48.854;8.830;2022-12-18T01:16:05;42.77;;;25.30;;
2029;SDS011;1020;48.854;8.830;2022-12-18T01:18:32;41.43;;;27.47;;
2029;SDS011;1020;48.854;8.830;2022-12-18T01:20:59;40.77;;;26.63;;
2029;SDS011;1020;48.854;8.830;2022-12-18T01:23:27;38.87;;;25.90;;
2029;SDS011;1020;48.854;8.830;2022-12-18T01:25:54;41.87;;;24.63;;
2029;SDS011;1020;48.854;8.830;2022-12-18T01:28:20;36.80;;;23.27;;
2029;SDS011;1020;48.854;8.830;2022-12-18T01:30:48;42.37;;;24.53;;
2029;SDS011;1020;48.854;8.830;2022-12-18T01:33:15;35.00;;;23.47;;
2029;SDS011;1020;48.854;8.830;2022-12-18T01:35:42;41.03;;;25.97;;
2029;SDS011;1020;48.854;8.830;2022-12-18T01:38:09;38.20;;;22.40;;
2029;SDS011;1020;48.854;8.830;2022-12-18T01:40:36;35.23;;;22.77;;
2029;SDS011;1020;48.854;8.830;2022-12-18T01:43:03;34.63;;;22.73;;
2029;SDS011;1020;48.854;8.830;2022-12-18T01:45:30;38.53;;;24.37;;
2029;SDS011;1020;48.854;8.830;2022-12-18T01:47:59;33.40;;;21.90;;
2029;SDS011;1020;48.854;8.830;2022-12-18T01:50:30;38.27;;;23.97;;
2029;SDS011;1020;48.854;8.830;2022-12-18T01:53:00;39.20;;;22.30;;
2029;SDS011;1020;48.854;8.830;2022-12-18T01:55:32;33.60;;;23.20;;
2029;SDS011;1020;48.854;8.830;2022-12-18T01:58:03;34.63;;;22.50;;
2029;SDS011;1020;48.854;8.830;2022-12-18T02:00:30;38.17;;;23.63;;
2029;SDS011;1020;48.854;8.830;2022-12-18T02:02:59;30.23;;;20.83;;
2029;SDS011;1020;48.854;8.830;2022-12-18T02:05:28;33.80;;;22.30;;
2029;SDS011;1020;48.854;8.830;2022-12-18T02:08:02;36.23;;;23.13;;
2029;SDS011;1020;48.854;8.830;2022-12-18T02:10:36;34.30;;;20.47;;
2029;SDS011;1020;48.854;8.830;2022-12-18T02:13:11;31.43;;;22.20;;
2029;SDS011;1020;48.854;8.830;2022-12-18T02:15:43;33.37;;;22.33;;
2029;SDS011;1020;48.854;8.830;2022-12-18T02:18:19;32.50;;;22.40;;
2029;SDS011;1020;48.854;8.830;2022-12-18T02:20:53;41.47;;;24.53;;
2029;SDS011;1020;48.854;8.830;2022-12-18T02:23:24;34.93;;;22.90;;
2029;SDS011;1020;48.854;8.830;2022-12-18T02:26:08;37.73;;;22.80;;
2029;SDS011;1020;48.854;8.830;2022-12-18T02:28:43;35.40;;;24.77;;
2029;SDS011;1020;48.854;8.830;2022-12-18T02:31:14;37.23;;;23.73;;
2029;SDS011;1020;48.854;8.830;2022-12-18T02:33:44;36.40;;;23.77;;
2029;SDS011;1020;48.854;8.830;2022-12-18T02:36:12;35.80;;;23.37;;
2029;SDS011;1020;48.854;8.830;2022-12-18T02:38:41;38.63;;;22.63;;
2029;SDS011;1020;48.854;8.830;2022-12-18T02:41:10;37.73;;;22.80;;
2029;SDS011;1020;48.854;8.830;2022-12-18T02:43:39;32.47;;;19.60;;
2029;SDS011;1020;48.854;8.830;2022-12-18T02:46:22;33.10;;;21.40;;
2029;SDS011;1020;48.854;8.830;2022-12-18T02:48:55;34.03;;;21.63;;
2029;SDS011;1020;48.854;8.830;2022-12-18T02:51:29;30.47;;;21.03;;
2029;SDS011;1020;48.854;8.830;2022-12-18T02:54:04;28.03;;;19.07;;
2029;SDS011;1020;48.854;8.830;2022-12-18T02:56:38;28.07;;;20.20;;
2029;SDS011;1020;48.854;8.830;2022-12-18T02:59:11;26.83;;;19.63;;
2029;SDS011;1020;48.854;8.830;2022-12-18T03:01:42;34.20;;;21.27;;
2029;SDS011;1020;48.854;8.830;2022-12-18T03:04:16;33.33;;;20.77;;
2029;SDS011;1020;48.854;8.830;2022-12-18T03:06:49;35.50;;;19.87;;
2029;SDS011;1020;48.854;8.830;2022-12-18T03:09:19;29.40;;;19.30;;
2029;SDS011;1020;48.854;8.830;2022-12-18T03:11:50;27.07;;;20.17;;
2029;SDS011;1020;48.854;8.830;2022-12-18T03:14:40;32.20;;;21.37;;
2029;SDS011;1020;48.854;8.830;2022-12-18T03:17:10;27.83;;;18.53;;
2029;SDS011;1020;48.854;8.830;2022-12-18T03:19:42;28.87;;;19.63;;
2029;SDS011;1020;48.854;8.830;2022-12-18T03:22:11;33.73;;;20.03;;
2029;SDS011;1020;48.854;8.830;2022-12-18T03:24:39;29.83;;;19.57;;
2029;SDS011;1020;48.854;8.830;2022-12-18T03:27:08;31.70;;;20.17;;
2029;SDS011;1020;48.854;8.830;2022-12-18T03:29:38;33.17;;;20.97;;
2029;SDS011;1020;48.854;8.830;2022-12-18T03:32:09;28.10;;;19.63;;
2029;SDS011;1020;48.854;8.830;2022-12-18T03:34:38;35.07;;;19.60;;
2029;SDS011;1020;48.854;8.830;2022-12-18T03:37:08;30.57;;;20.33;;
2029;SDS011;1020;48.854;8.830;2022-12-18T03:39:35;30.20;;;20.10;;
2029;SDS011;1020;48.854;8.830;2022-12-18T03:42:04;36.70;;;22.23;;
2029;SDS011;1020;48.854;8.830;2022-12-18T03:44:38;32.87;;;20.60;;
2029;SDS011;1020;48.854;8.830;2022-12-18T03:47:09;31.40;;;22.27;;
2029;SDS011;1020;48.854;8.830;2022-12-18T03:49:47;34.50;;;22.50;;
2029;SDS011;1020;48.854;8.830;2022-12-18T03:52:23;37.87;;;23.33;;
2029;SDS011;1020;48.854;8.830;2022-12-18T03:54:54;32.97;;;21.17;;
2029;SDS011;1020;48.854;8.830;2022-12-18T03:57:26;33.73;;;20.80;;
2029;SDS011;1020;48.854;8.830;2022-12-18T03:59:56;29.77;;;21.00;;
2029;SDS011;1020;48.854;8.830;2022-12-18T04:02:26;35.53;;;21.70;;
2029;SDS011;1020;48.854;8.830;2022-12-18T04:04:54;33.23;;;20.93;;
2029;SDS011;1020;48.854;8.830;2022-12-18T04:07:25;40.17;;;24.07;;
2029;SDS011;1020;48.854;8.830;2022-12-18T04:09:55;37.67;;;24.27;;
2029;SDS011;1020;48.854;8.830;2022-12-18T04:12:26;30.43;;;22.03;;
2029;SDS011;1020;48.854;8.830;2022-12-18T04:14:53;35.53;;;22.90;;
2029;SDS011;1020;48.854;8.830;2022-12-18T04:17:19;31.50;;;21.53;;
2029;SDS011;1020;48.854;8.830;2022-12-18T04:19:46;31.80;;;21.60;;
2029;SDS011;1020;48.854;8.830;2022-12-18T04:22:13;32.87;;;22.47;;
2029;SDS011;1020;48.854;8.830;2022-12-18T04:24:40;36.03;;;23.10;;
2029;SDS011;1020;48.854;8.830;2022-12-18T04:27:07;33.97;;;20.77;;
2029;SDS011;1020;48.854;8.830;2022-12-18T04:29:35;35.57;;;21.63;;
2029;SDS011;1020;48.854;8.830;2022-12-18T04:32:02;37.90;;;22.47;;
2029;SDS011;1020;48.854;8.830;2022-12-18T04:34:29;33.20;;;21.10;;
2029;SDS011;1020;48.854;8.830;2022-12-18T04:36:55;33.00;;;21.53;;
2029;SDS011;1020;48.854;8.830;2022-12-18T04:39:22;34.80;;;22.73;;
2029;SDS011;1020;48.854;8.830;2022-12-18T04:41:49;34.83;;;20.97;;
2029;SDS011;1020;48.854;8.830;2022-12-18T04:44:15;26.40;;;16.90;;
2029;SDS011;1020;48.854;8.830;2022-12-18T04:46:44;32.87;;;21.63;;
2029;SDS011;1020;48.854;8.830;2022-12-18T04:49:10;32.73;;;21.07;;
2029;SDS011;1020;48.854;8.830;2022-12-18T04:51:37;30.50;;;20.30;;
2029;SDS011;1020;48.854;8.830;2022-12-18T04:54:04;31.07;;;21.13;;
2029;SDS011;1020;48.854;8.830;2022-12-18T04:56:31;30.03;;;20.90;;
2029;SDS011;1020;48.854;8.830;2022-12-18T04:58:58;29.50;;;19.40;;
2029;SDS011;1020;48.854;8.830;2022-12-18T05:01:25;31.03;;;21.37;;
2029;SDS011;1020;48.854;8.830;2022-12-18T05:03:53;30.80;;;20.87;;
2029;SDS011;1020;48.854;8.830;2022-12-18T05:06:20;33.23;;;19.90;;
2029;SDS011;1020;48.854;8.830;2022-12-18T05:08:46;28.57;;;20.13;;
2029;SDS011;1020;48.854;8.830;2022-12-18T05:11:13;26.70;;;18.77;;
2029;SDS011;1020;48.854;8.830;2022-12-18T05:13:41;29.80;;;19.57;;
2029;SDS011;1020;48.854;8.830;2022-12-18T05:16:09;27.87;;;19.60;;
2029;SDS011;1020;48.854;8.830;2022-12-18T05:18:36;28.50;;;19.20;;
2029;SDS011;1020;48.854;8.830;2022-12-18T05:21:05;27.83;;;18.80;;
2029;SDS011;1020;48.854;8.830;2022-12-18T05:23:32;30.80;;;18.07;;
2029;SDS011;1020;48.854;8.830;2022-12-18T05:26:00;28.53;;;19.27;;
2029;SDS011;1020;48.854;8.830;2022-12-18T05:28:30;24.37;;;17.93;;
2029;SDS011;1020;48.854;8.830;2022-12-18T05:30:59;26.87;;;17.73;;
2029;SDS011;1020;48.854;8.830;2022-12-18T05:33:28;24.47;;;16.33;;
2029;SDS011;1020;48.854;8.830;2022-12-18T05:35:58;26.13;;;16.47;;
2029;SDS011;1020;48.854;8.830;2022-12-18T05:38:32;25.40;;;15.83;;
2029;SDS011;1020;48.854;8.830;2022-12-18T05:41:01;24.93;;;16.30;;
2029;SDS011;1020;48.854;8.830;2022-12-18T05:43:29;28.30;;;17.00;;
2029;SDS011;1020;48.854;8.830;2022-12-18T05:46:01;31.43;;;17.73;;
2029;SDS011;1020;48.854;8.830;2022-12-18T05:48:30;31.03;;;19.40;;
2029;SDS011;1020;48.854;8.830;2022-12-18T05:51:02;30.80;;;18.97;;
2029;SDS011;1020;48.854;8.830;2022-12-18T05:53:32;26.23;;;16.90;;
2029;SDS011;1020;48.854;8.830;2022-12-18T05:56:00;30.83;;;17.40;;
2029;SDS011;1020;48.854;8.830;2022-12-18T05:58:28;27.63;;;17.00;;
2029;SDS011;1020;48.854;8.830;2022-12-18T06:00:55;27.17;;;17.23;;
2029;SDS011;1020;48.854;8.830;2022-12-18T06:03:22;31.23;;;20.03;;
2029;SDS011;1020;48.854;8.830;2022-12-18T06:05:49;34.20;;;17.17;;
2029;SDS011;1020;48.854;8.830;2022-12-18T06:08:16;30.57;;;16.70;;
2029;SDS011;1020;48.854;8.830;2022-12-18T06:10:48;29.53;;;17.67;;
2029;SDS011;1020;48.854;8.830;2022-12-18T06:13:16;36.63;;;18.80;;
2029;SDS011;1020;48.854;8.830;2022-12-18T06:15:43;39.13;;;20.30;;
2029;SDS011;1020;48.854;8.830;2022-12-18T06:18:10;28.97;;;19.30;;
2029;SDS011;1020;48.854;8.830;2022-12-18T06:20:37;33.27;;;18.47;;
2029;SDS011;1020;48.854;8.830;2022-12-18T06:23:04;39.10;;;19.83;;
2029;SDS011;1020;48.854;8.830;2022-12-18T06:25:31;36.47;;;20.17;;
2029;SDS011;1020;48.854;8.830;2022-12-18T06:28:00;34.47;;;20.10;;
2029;SDS011;1020;48.854;8.830;2022-12-18T06:30:27;42.63;;;19.53;;
2029;SDS011;1020;48.854;8.830;2022-12-18T06:32:53;35.80;;;21.27;;
2029;SDS011;1020;48.854;8.830;2022-12-18T06:35:21;34.67;;;20.13;;
2029;SDS011;1020;48.854;8.830;2022-12-18T06:37:48;36.87;;;21.27;;
2029;SDS011;1020;48.854;8.830;2022-12-18T06:40:15;38.00;;;20.57;;
2029;SDS011;1020;48.854;8.830;2022-12-18T06:42:42;38.00;;;20.90;;
2029;SDS011;1020;48.854;8.830;2022-12-18T06:45:10;35.27;;;19.33;;
2029;SDS011;1020;48.854;8.830;2022-12-18T06:47:37;44.00;;;20.10;;
2029;SDS011;1020;48.854;8.830;2022-12-18T06:50:04;38.63;;;20.00;;
2029;SDS011;1020;48.854;8.830;2022-12-18T06:52:34;30.57;;;15.27;;
2029;SDS011;1020;48.854;8.830;2022-12-18T06:55:02;37.87;;;19.77;;
2029;SDS011;1020;48.854;8.830;2022-12-18T06:57:30;39.30;;;20.83;;
2029;SDS011;1020;48.854;8.830;2022-12-18T06:59:57;44.47;;;20.83;;
2029;SDS011;1020;48.854;8.830;2022-12-18T07:02:26;35.43;;;21.63;;
2029;SDS011;1020;48.854;8.830;2022-12-18T07:04:53;33.70;;;19.60;;
2029;SDS011;1020;48.854;8.830;2022-12-18T07:07:20;37.20;;;20.97;;
2029;SDS011;1020;48.854;8.830;2022-12-18T07:09:46;34.87;;;19.67;;
2029;SDS011;1020;48.854;8.830;2022-12-18T07:12:15;34.90;;;20.10;;
2029;SDS011;1020;48.854;8.830;2022-12-18T07:14:42;37.83;;;20.93;;
2029;SDS011;1020;48.854;8.830;2022-12-18T07:17:08;32.90;;;18.87;;
2029;SDS011;1020;48.854;8.830;2022-12-18T07:19:36;32.53;;;18.70;;
2029;SDS011;1020;48.854;8.830;2022-12-18T07:22:03;34.10;;;19.83;;
2029;SDS011;1020;48.854;8.830;2022-12-18T07:24:30;41.23;;;20.13;;
2029;SDS011;1020;48.854;8.830;2022-12-18T07:26:58;40.00;;;20.80;;
2029;SDS011;1020;48.854;8.830;2022-12-18T07:29:25;30.57;;;17.03;;
2029;SDS011;1020;48.854;8.830;2022-12-18T07:31:53;35.50;;;20.30;;
2029;SDS011;1020;48.854;8.830;2022-12-18T07:34:20;32.47;;;19.10;;
2029;SDS011;1020;48.854;8.830;2022-12-18T07:36:48;35.90;;;21.00;;
2029;SDS011;1020;48.854;8.830;2022-12-18T07:39:15;38.30;;;20.43;;
2029;SDS011;1020;48.854;8.830;2022-12-18T07:41:42;35.30;;;18.00;;
2029;SDS011;1020;48.854;8.830;2022-12-18T07:44:29;36.17;;;19.33;;
2029;SDS011;1020;48.854;8.830;2022-12-18T07:46:55;31.93;;;17.33;;
2029;SDS011;1020;48.854;8.830;2022-12-18T07:49:22;30.80;;;18.33;;
2029;SDS011;1020;48.854;8.830;2022-12-18T07:51:50;34.43;;;20.00;;
2029;SDS011;1020;48.854;8.830;2022-12-18T07:54:20;28.67;;;18.73;;
2029;SDS011;1020;48.854;8.830;2022-12-18T07:56:46;30.40;;;17.67;;
2029;SDS011;1020;48.854;8.830;2022-12-18T07:59:13;32.53;;;17.27;;
2029;SDS011;1020;48.854;8.830;2022-12-18T08:01:40;24.80;;;16.53;;
2029;SDS011;1020;48.854;8.830;2022-12-18T08:04:07;26.80;;;17.30;;
2029;SDS011;1020;48.854;8.830;2022-12-18T08:06:34;25.67;;;15.47;;
2029;SDS011;1020;48.854;8.830;2022-12-18T08:09:02;27.20;;;15.60;;
2029;SDS011;1020;48.854;8.830;2022-12-18T08:11:29;24.50;;;15.90;;
2029;SDS011;1020;48.854;8.830;2022-12-18T08:13:56;23.87;;;16.73;;
2029;SDS011;1020;48.854;8.830;2022-12-18T08:16:23;24.60;;;15.50;;
2029;SDS011;1020;48.854;8.830;2022-12-18T08:18:51;23.63;;;15.37;;
2029;SDS011;1020;48.854;8.830;2022-12-18T08:21:19;24.00;;;16.50;;
2029;SDS011;1020;48.854;8.830;2022-12-18T08:23:48;25.03;;;17.07;;
2029;SDS011;1020;48.854;8.830;2022-12-18T08:26:16;26.60;;;18.20;;
2029;SDS011;1020;48.854;8.830;2022-12-18T08:28:43;25.37;;;17.10;;
2029;SDS011;1020;48.854;8.830;2022-12-18T08:31:10;26.43;;;17.50;;
2029;SDS011;1020;48.854;8.830;2022-12-18T08:33:38;27.77;;;17.37;;
2029;SDS011;1020;48.854;8.830;2022-12-18T08:36:05;26.27;;;17.80;;
2029;SDS011;1020;48.854;8.830;2022-12-18T08:38:34;29.27;;;20.53;;
2029;SDS011;1020;48.854;8.830;2022-12-18T08:41:00;26.23;;;17.17;;
2029;SDS011;1020;48.854;8.830;2022-12-18T08:43:30;25.60;;;17.33;;
2029;SDS011;1020;48.854;8.830;2022-12-18T08:46:14;25.17;;;16.20;;
2029;SDS011;1020;48.854;8.830;2022-12-18T08:48:42;24.47;;;16.40;;
2029;SDS011;1020;48.854;8.830;2022-12-18T08:51:10;22.30;;;16.83;;
2029;SDS011;1020;48.854;8.830;2022-12-18T08:53:37;23.80;;;17.37;;
2029;SDS011;1020;48.854;8.830;2022-12-18T08:56:04;27.87;;;17.27;;
2029;SDS011;1020;48.854;8.830;2022-12-18T08:58:33;23.00;;;16.10;;
2029;SDS011;1020;48.854;8.830;2022-12-18T09:01:00;27.80;;;18.23;;
2029;SDS011;1020;48.854;8.830;2022-12-18T09:03:27;25.00;;;15.60;;
2029;SDS011;1020;48.854;8.830;2022-12-18T09:05:54;28.70;;;17.57;;
2029;SDS011;1020;48.854;8.830;2022-12-18T09:08:21;27.70;;;19.23;;
2029;SDS011;1020;48.854;8.830;2022-12-18T09:10:49;26.30;;;17.80;;
2029;SDS011;1020;48.854;8.830;2022-12-18T09:13:16;30.80;;;20.10;;
2029;SDS011;1020;48.854;8.830;2022-12-18T09:15:46;30.63;;;19.97;;
2029;SDS011;1020;48.854;8.830;2022-12-18T09:18:15;31.23;;;17.80;;
2029;SDS011;1020;48.854;8.830;2022-12-18T09:20:43;26.43;;;18.83;;
2029;SDS011;1020;48.854;8.830;2022-12-18T09:23:10;30.03;;;17.80;;
2029;SDS011;1020;48.854;8.830;2022-12-18T09:25:37;29.23;;;16.67;;
2029;SDS011;1020;48.854;8.830;2022-12-18T09:28:05;30.77;;;18.33;;
2029;SDS011;1020;48.854;8.830;2022-12-18T09:30:36;25.90;;;17.10;;
2029;SDS011;1020;48.854;8.830;2022-12-18T09:33:05;24.90;;;16.97;;
2029;SDS011;1020;48.854;8.830;2022-12-18T09:35:32;26.00;;;16.73;;
2029;SDS011;1020;48.854;8.830;2022-12-18T09:38:01;22.50;;;15.87;;
2029;SDS011;1020;48.854;8.830;2022-12-18T09:40:29;26.13;;;18.60;;
2029;SDS011;1020;48.854;8.830;2022-12-18T09:43:03;24.90;;;16.93;;
2029;SDS011;1020;48.854;8.830;2022-12-18T09:45:30;28.37;;;17.53;;
2029;SDS011;1020;48.854;8.830;2022-12-18T09:48:08;31.87;;;18.87;;
2029;SDS011;1020;48.854;8.830;2022-12-18T09:50:42;30.50;;;18.03;;
2029;SDS011;1020;48.854;8.830;2022-12-18T09:53:11;28.40;;;17.17;;
2029;SDS011;1020;48.854;8.830;2022-12-18T09:55:45;28.47;;;18.43;;
2029;SDS011;1020;48.854;8.830;2022-12-18T09:58:16;27.67;;;17.77;;
2029;SDS011;1020;48.854;8.830;2022-12-18T10:00:46;28.93;;;18.63;;
2029;SDS011;1020;48.854;8.830;2022-12-18T10:03:15;25.60;;;18.20;;
2029;SDS011;1020;48.854;8.830;2022-12-18T10:05:44;28.10;;;17.83;;
2029;SDS011;1020;48.854;8.830;2022-12-18T10:08:21;26.50;;;17.87;;
2029;SDS011;1020;48.854;8.830;2022-12-18T10:10:56;25.53;;;16.00;;
2029;SDS011;1020;48.854;8.830;2022-12-18T10:13:28;32.60;;;19.50;;
2029;SDS011;1020;48.854;8.830;2022-12-18T10:16:05;27.00;;;16.80;;
2029;SDS011;1020;48.854;8.830;2022-12-18T10:18:53;29.50;;;17.23;;
2029;SDS011;1020;48.854;8.830;2022-12-18T10:21:30;26.53;;;16.50;;
2029;SDS011;1020;48.854;8.830;2022-12-18T10:24:08;25.03;;;18.17;;
2029;SDS011;1020;48.854;8.830;2022-12-18T10:26:42;30.00;;;18.40;;
2029;SDS011;1020;48.854;8.830;2022-12-18T10:29:10;29.67;;;17.80;;
2029;SDS011;1020;48.854;8.830;2022-12-18T10:31:39;28.43;;;18.60;;
2029;SDS011;1020;48.854;8.830;2022-12-18T10:34:10;24.83;;;17.77;;
2029;SDS011;1020;48.854;8.830;2022-12-18T10:36:37;30.00;;;17.43;;
2029;SDS011;1020;48.854;8.830;2022-12-18T10:39:14;27.93;;;18.40;;
2029;SDS011;1020;48.854;8.830;2022-12-18T10:41:42;24.27;;;16.83;;
2029;SDS011;1020;48.854;8.830;2022-12-18T10:44:11;28.00;;;18.90;;
2029;SDS011;1020;48.854;8.830;2022-12-18T10:46:42;25.00;;;17.87;;
2029;SDS011;1020;48.854;8.830;2022-12-18T10:49:19;30.70;;;19.07;;
2029;SDS011;1020;48.854;8.830;2022-12-18T10:51:48;30.50;;;19.30;;
2029;SDS011;1020;48.854;8.830;2022-12-18T10:54:17;25.83;;;17.43;;
2029;SDS011;1020;48.854;8.830;2022-12-18T10:56:45;31.97;;;19.33;;
2029;SDS011;1020;48.854;8.830;2022-12-18T10:59:13;29.53;;;19.17;;
2029;SDS011;1020;48.854;8.830;2022-12-18T11:01:51;29.23;;;18.20;;
2029;SDS011;1020;48.854;8.830;2022-12-18T11:04:22;26.53;;;18.70;;
2029;SDS011;1020;48.854;8.830;2022-12-18T11:06:54;27.10;;;18.30;;
2029;SDS011;1020;48.854;8.830;2022-12-18T11:09:24;27.50;;;18.50;;
2029;SDS011;1020;48.854;8.830;2022-12-18T11:11:52;26.70;;;18.60;;
2029;SDS011;1020;48.854;8.830;2022-12-18T11:14:21;25.77;;;17.80;;
2029;SDS011;1020;48.854;8.830;2022-12-18T11:16:50;27.37;;;18.40;;
2029;SDS011;1020;48.854;8.830;2022-12-18T11:19:26;25.00;;;17.20;;
2029;SDS011;1020;48.854;8.830;2022-12-18T11:21:57;29.50;;;18.53;;
2029;SDS011;1020;48.854;8.830;2022-12-18T11:24:27;28.10;;;18.70;;
2029;SDS011;1020;48.854;8.830;2022-12-18T11:26:57;24.00;;;16.63;;
2029;SDS011;1020;48.854;8.830;2022-12-18T11:29:28;29.07;;;18.53;;
2029;SDS011;1020;48.854;8.830;2022-12-18T11:34:51;25.10;;;18.80;;
2029;SDS011;1020;48.854;8.830;2022-12-18T11:37:23;30.23;;;19.93;;
2029;SDS011;1020;48.854;8.830;2022-12-18T11:39:51;25.83;;;17.30;;
2029;SDS011;1020;48.854;8.830;2022-12-18T11:42:23;24.70;;;17.13;;
2029;SDS011;1020;48.854;8.830;2022-12-18T11:44:55;31.60;;;19.83;;
2029;SDS011;1020;48.854;8.830;2022-12-18T11:47:27;32.70;;;19.83;;
2029;SDS011;1020;48.854;8.830;2022-12-18T11:50:03;29.23;;;18.60;;
2029;SDS011;1020;48.854;8.830;2022-12-18T11:52:40;30.80;;;20.70;;
2029;SDS011;1020;48.854;8.830;2022-12-18T11:55:10;32.03;;;19.93;;
2029;SDS011;1020;48.854;8.830;2022-12-18T11:57:41;29.53;;;20.97;;
2029;SDS011;1020;48.854;8.830;2022-12-18T12:00:19;28.10;;;18.43;;
2029;SDS011;1020;48.854;8.830;2022-12-18T12:05:57;28.00;;;18.50;;
2029;SDS011;1020;48.854;8.830;2022-12-18T12:08:37;28.50;;;18.50;;
2029;SDS011;1020;48.854;8.830;2022-12-18T12:11:17;30.33;;;19.93;;
2029;SDS011;1020;48.854;8.830;2022-12-18T12:14:01;33.33;;;20.23;;
2029;SDS011;1020;48.854;8.830;2022-12-18T12:16:41;31.03;;;20.77;;
2029;SDS011;1020;48.854;8.830;2022-12-18T12:19:18;33.53;;;21.00;;
2029;SDS011;1020;48.854;8.830;2022-12-18T12:21:58;30.70;;;18.70;;
2029;SDS011;1020;48.854;8.830;2022-12-18T12:24:33;28.70;;;18.97;;
2029;SDS011;1020;48.854;8.830;2022-12-18T12:27:07;31.40;;;20.40;;
2029;SDS011;1020;48.854;8.830;2022-12-18T12:29:46;31.20;;;21.67;;
2029;SDS011;1020;48.854;8.830;2022-12-18T12:32:22;28.77;;;19.70;;
2029;SDS011;1020;48.854;8.830;2022-12-18T12:35:01;30.30;;;18.63;;
2029;SDS011;1020;48.854;8.830;2022-12-18T12:37:43;29.97;;;20.20;;
2029;SDS011;1020;48.854;8.830;2022-12-18T12:40:19;32.17;;;20.53;;
2029;SDS011;1020;48.854;8.830;2022-12-18T12:42:50;31.40;;;20.33;;
2029;SDS011;1020;48.854;8.830;2022-12-18T12:45:45;35.63;;;22.73;;
2029;SDS011;1020;48.854;8.830;2022-12-18T12:48:16;32.97;;;20.93;;
2029;SDS011;1020;48.854;8.830;2022-12-18T12:50:48;27.40;;;20.13;;
2029;SDS011;1020;48.854;8.830;2022-12-18T12:53:21;26.57;;;18.00;;
2029;SDS011;1020;48.854;8.830;2022-12-18T12:55:52;30.77;;;19.77;;
2029;SDS011;1020;48.854;8.830;2022-12-18T12:58:23;29.20;;;19.00;;
2029;SDS011;1020;48.854;8.830;2022-12-18T13:01:00;27.90;;;19.73;;
2029;SDS011;1020;48.854;8.830;2022-12-18T13:03:36;27.67;;;20.47;;
2029;SDS011;1020;48.854;8.830;2022-12-18T13:06:12;27.60;;;20.37;;
2029;SDS011;1020;48.854;8.830;2022-12-18T13:08:53;32.23;;;20.30;;
2029;SDS011;1020;48.854;8.830;2022-12-18T13:11:29;32.70;;;21.30;;
2029;SDS011;1020;48.854;8.830;2022-12-18T13:14:35;34.03;;;20.63;;
2029;SDS011;1020;48.854;8.830;2022-12-18T13:20:07;34.07;;;22.13;;
2029;SDS011;1020;48.854;8.830;2022-12-18T13:22:37;27.73;;;18.80;;
2029;SDS011;1020;48.854;8.830;2022-12-18T13:28:00;33.47;;;21.77;;
2029;SDS011;1020;48.854;8.830;2022-12-18T13:30:43;32.93;;;22.87;;
2029;SDS011;1020;48.854;8.830;2022-12-18T13:36:23;38.07;;;23.33;;
2029;SDS011;1020;48.854;8.830;2022-12-18T13:41:50;32.77;;;21.93;;
2029;SDS011;1020;48.854;8.830;2022-12-18T13:44:30;42.20;;;25.60;;
2029;SDS011;1020;48.854;8.830;2022-12-18T13:46:58;37.17;;;24.07;;
2029;SDS011;1020;48.854;8.830;2022-12-18T13:49:27;31.00;;;21.03;;
2029;SDS011;1020;48.854;8.830;2022-12-18T13:52:02;30.20;;;21.60;;
2029;SDS011;1020;48.854;8.830;2022-12-18T13:54:40;33.53;;;22.20;;
2029;SDS011;1020;48.854;8.830;2022-12-18T13:57:25;42.33;;;23.13;;
2029;SDS011;1020;48.854;8.830;2022-12-18T13:59:54;31.60;;;20.40;;
2029;SDS011;1020;48.854;8.830;2022-12-18T14:02:22;31.47;;;20.60;;
2029;SDS011;1020;48.854;8.830;2022-12-18T14:04:50;41.97;;;22.27;;
2029;SDS011;1020;48.854;8.830;2022-12-18T14:07:18;29.00;;;20.10;;
2029;SDS011;1020;48.854;8.830;2022-12-18T14:09:49;30.27;;;19.53;;
2029;SDS011;1020;48.854;8.830;2022-12-18T14:12:20;31.20;;;19.73;;
2029;SDS011;1020;48.854;8.830;2022-12-18T14:15:06;32.07;;;19.20;;
2029;SDS011;1020;48.854;8.830;2022-12-18T14:17:47;34.63;;;22.60;;
2029;SDS011;1020;48.854;8.830;2022-12-18T14:20:14;32.20;;;20.50;;
2029;SDS011;1020;48.854;8.830;2022-12-18T14:22:42;36.00;;;20.97;;
2029;SDS011;1020;48.854;8.830;2022-12-18T14:25:15;33.17;;;21.67;;
2029;SDS011;1020;48.854;8.830;2022-12-18T14:27:46;36.90;;;22.63;;
2029;SDS011;1020;48.854;8.830;2022-12-18T14:30:24;38.33;;;22.43;;
2029;SDS011;1020;48.854;8.830;2022-12-18T14:33:00;33.67;;;21.73;;
2029;SDS011;1020;48.854;8.830;2022-12-18T14:35:27;36.17;;;22.67;;
2029;SDS011;1020;48.854;8.830;2022-12-18T14:38:07;33.93;;;20.80;;
2029;SDS011;1020;48.854;8.830;2022-12-18T14:40:43;34.50;;;21.60;;
2029;SDS011;1020;48.854;8.830;2022-12-18T14:43:12;39.87;;;23.67;;
2029;SDS011;1020;48.854;8.830;2022-12-18T14:45:39;36.13;;;23.83;;
2029;SDS011;1020;48.854;8.830;2022-12-18T14:48:08;35.30;;;23.43;;
2029;SDS011;1020;48.854;8.830;2022-12-18T14:50:40;34.47;;;22.30;;
2029;SDS011;1020;48.854;8.830;2022-12-18T14:53:17;40.10;;;22.07;;
2029;SDS011;1020;48.854;8.830;2022-12-18T14:55:46;37.77;;;21.27;;
2029;SDS011;1020;48.854;8.830;2022-12-18T14:58:15;36.00;;;23.17;;
2029;SDS011;1020;48.854;8.830;2022-12-18T15:00:43;37.40;;;21.57;;
2029;SDS011;1020;48.854;8.830;2022-12-18T15:03:12;35.00;;;23.07;;
2029;SDS011;1020;48.854;8.830;2022-12-18T15:05:44;37.30;;;21.80;;
2029;SDS011;1020;48.854;8.830;2022-12-18T15:08:27;35.07;;;22.80;;
2029;SDS011;1020;48.854;8.830;2022-12-18T15:11:02;37.53;;;22.13;;
2029;SDS011;1020;48.854;8.830;2022-12-18T15:13:30;36.57;;;24.60;;
2029;SDS011;1020;48.854;8.830;2022-12-18T15:15:57;36.07;;;23.23;;
2029;SDS011;1020;48.854;8.830;2022-12-18T15:18:29;39.80;;;26.20;;
2029;SDS011;1020;48.854;8.830;2022-12-18T15:20:59;38.93;;;23.47;;
2029;SDS011;1020;48.854;8.830;2022-12-18T15:23:34;32.27;;;22.17;;
2029;SDS011;1020;48.854;8.830;2022-12-18T15:26:03;38.60;;;24.20;;